createdAt,value
2024-05-09T00:00:46.196Z,10.50
2024-05-09T00:03:14.131Z,10.50
2024-05-09T00:05:42.160Z,10.50
2024-05-09T00:08:10.622Z,10.40
2024-05-09T00:10:39.498Z,10.40
2024-05-09T00:13:08.793Z,10.40
2024-05-09T00:15:36.797Z,10.40
2024-05-09T00:18:05.851Z,10.40
2024-05-09T00:20:38.850Z,10.30
2024-05-09T00:23:10.556Z,10.30
2024-05-09T00:25:38.505Z,10.30
2024-05-09T00:28:06.464Z,10.30
2024-05-09T00:30:36.233Z,10.20
2024-05-09T00:33:06.518Z,10.20
2024-05-09T00:35:35.238Z,10.20
2024-05-09T00:38:02.886Z,10.10
2024-05-09T00:40:40.416Z,10.10
2024-05-09T00:43:14.459Z,10.10
2024-05-09T00:45:43.161Z,10.10
2024-05-09T00:48:14.369Z,10.10
2024-05-09T00:50:44.848Z,10.00
2024-05-09T00:53:14.322Z,10.00
2024-05-09T00:55:42.458Z,10.00
2024-05-09T00:58:11.949Z,10.00
2024-05-09T01:00:41.296Z,10.00
2024-05-09T01:03:11.975Z,10.00
2024-05-09T01:05:41.611Z,10.00
2024-05-09T01:08:27.566Z,9.90
2024-05-09T01:10:55.056Z,9.90
2024-05-09T01:13:22.087Z,9.90
2024-05-09T01:15:50.164Z,9.90
2024-05-09T01:18:17.506Z,9.90
2024-05-09T01:20:45.516Z,9.90
2024-05-09T01:23:15.499Z,9.90
2024-05-09T01:25:44.636Z,9.90
2024-05-09T01:28:11.915Z,9.90
2024-05-09T01:30:39.495Z,9.80
2024-05-09T01:33:08.948Z,9.80
2024-05-09T01:35:38.808Z,9.80
2024-05-09T01:38:06.611Z,9.80
2024-05-09T01:40:38.404Z,9.80
2024-05-09T01:43:09.456Z,9.80
2024-05-09T01:45:37.879Z,9.80
2024-05-09T01:48:05.588Z,9.80
2024-05-09T01:50:38.249Z,9.80
2024-05-09T01:53:14.494Z,9.80
2024-05-09T01:55:42.768Z,9.80
2024-05-09T01:58:10.552Z,9.80
2024-05-09T02:00:41.361Z,9.80
2024-05-09T02:03:15.013Z,9.70
2024-05-09T02:05:48.306Z,9.80
2024-05-09T02:08:17.774Z,9.70
2024-05-09T02:10:45.438Z,9.70
2024-05-09T02:13:13.744Z,9.70
2024-05-09T02:15:40.796Z,9.60
2024-05-09T02:18:08.892Z,9.60
2024-05-09T02:20:38.914Z,9.60
2024-05-09T02:23:07.032Z,9.60
2024-05-09T02:25:34.793Z,9.60
2024-05-09T02:28:02.244Z,9.70
2024-05-09T02:30:38.768Z,9.60
2024-05-09T02:33:11.300Z,9.60
2024-05-09T02:35:40.535Z,9.60
2024-05-09T02:38:09.044Z,9.60
2024-05-09T02:40:38.759Z,9.60
2024-05-09T02:43:08.417Z,9.60
2024-05-09T02:45:37.105Z,9.60
2024-05-09T02:48:04.533Z,9.60
2024-05-09T02:50:37.867Z,9.60
2024-05-09T02:53:08.997Z,9.60
2024-05-09T02:55:37.001Z,9.60
2024-05-09T02:58:04.598Z,9.60
2024-05-09T03:00:38.307Z,9.60
2024-05-09T03:03:09.825Z,9.60
2024-05-09T03:05:38.773Z,9.50
2024-05-09T03:08:06.461Z,9.60
2024-05-09T03:10:36.582Z,9.50
2024-05-09T03:13:11.429Z,9.60
2024-05-09T03:15:38.409Z,9.60
2024-05-09T03:18:06.534Z,9.60
2024-05-09T03:20:35.730Z,9.50
2024-05-09T03:23:05.567Z,9.50
2024-05-09T03:25:32.955Z,9.50
2024-05-09T03:27:59.973Z,9.50
2024-05-09T03:30:38.555Z,9.50
2024-05-09T03:33:15.206Z,9.40
2024-05-09T03:35:44.128Z,9.40
2024-05-09T03:38:11.253Z,9.40
2024-05-09T03:40:48.191Z,9.40
2024-05-09T03:43:16.051Z,9.40
2024-05-09T03:45:43.682Z,9.40
2024-05-09T03:48:11.074Z,9.30
2024-05-09T03:50:38.741Z,9.30
2024-05-09T03:53:06.944Z,9.30
2024-05-09T03:55:34.247Z,9.30
2024-05-09T03:58:01.250Z,9.30
2024-05-09T04:00:35.643Z,9.30
2024-05-09T04:03:09.034Z,9.20
2024-05-09T04:05:40.581Z,9.30
2024-05-09T04:08:09.773Z,9.30
2024-05-09T04:10:36.886Z,9.30
2024-05-09T04:13:04.602Z,9.30
2024-05-09T04:15:32.252Z,9.30
2024-05-09T04:18:00.510Z,9.30
2024-05-09T04:20:36.170Z,9.30
2024-05-09T04:23:08.586Z,9.30
2024-05-09T04:25:36.376Z,9.30
2024-05-09T04:28:04.012Z,9.40
2024-05-09T04:30:37.539Z,9.40
2024-05-09T04:33:10.667Z,9.40
2024-05-09T04:35:39.721Z,9.40
2024-05-09T04:38:08.286Z,9.40
2024-05-09T04:40:37.034Z,9.40
2024-05-09T04:43:06.218Z,9.50
2024-05-09T04:45:33.613Z,9.50
2024-05-09T04:48:01.639Z,9.50
2024-05-09T04:50:35.650Z,9.60
2024-05-09T04:53:10.558Z,9.60
2024-05-09T04:55:39.009Z,9.70
2024-05-09T04:58:10.223Z,9.70
2024-05-09T05:00:39.198Z,9.80
2024-05-09T05:03:10.411Z,9.80
2024-05-09T05:05:42.315Z,9.90
2024-05-09T05:08:14.029Z,10.00
2024-05-09T05:10:42.147Z,10.00
2024-05-09T05:13:19.875Z,10.10
2024-05-09T05:15:57.203Z,10.10
2024-05-09T05:18:26.874Z,10.20
2024-05-09T05:20:56.052Z,10.20
2024-05-09T05:23:23.767Z,10.30
2024-05-09T05:25:53.232Z,10.40
2024-05-09T05:28:21.547Z,10.40
2024-05-09T05:30:48.876Z,10.50
2024-05-09T05:33:18.741Z,10.50
2024-05-09T05:35:46.682Z,10.50
2024-05-09T05:38:13.895Z,10.60
2024-05-09T05:40:41.498Z,10.60
2024-05-09T05:43:10.192Z,10.70
2024-05-09T05:45:38.470Z,10.70
2024-05-09T05:48:07.143Z,10.80
2024-05-09T05:50:37.486Z,10.90
2024-05-09T05:53:07.370Z,10.90
2024-05-09T05:55:36.159Z,11.00
2024-05-09T05:58:03.602Z,11.00
2024-05-09T06:00:38.126Z,11.10
2024-05-09T06:03:11.706Z,11.10
2024-05-09T06:05:40.553Z,11.20
2024-05-09T06:08:08.377Z,11.20
2024-05-09T06:10:39.389Z,11.30
2024-05-09T06:13:11.416Z,11.30
2024-05-09T06:15:39.560Z,11.40
2024-05-09T06:18:08.008Z,11.40
2024-05-09T06:20:37.516Z,11.50
2024-05-09T06:23:06.656Z,11.50
2024-05-09T06:25:34.735Z,11.60
2024-05-09T06:28:02.423Z,11.60
2024-05-09T06:30:37.997Z,11.70
2024-05-09T06:33:10.232Z,11.80
2024-05-09T06:35:38.680Z,11.80
2024-05-09T06:38:09.023Z,11.80
2024-05-09T06:40:39.444Z,11.90
2024-05-09T06:43:17.474Z,11.90
2024-05-09T06:45:49.516Z,12.00
2024-05-09T06:48:20.879Z,12.10
2024-05-09T06:50:48.597Z,12.20
2024-05-09T06:53:17.147Z,12.20
2024-05-09T06:55:44.216Z,12.30
2024-05-09T06:58:11.336Z,12.30
2024-05-09T07:00:41.027Z,12.40
2024-05-09T07:03:11.109Z,12.50
2024-05-09T07:05:39.801Z,12.50
2024-05-09T07:08:07.289Z,12.60
2024-05-09T07:10:38.136Z,12.70
2024-05-09T07:13:12.843Z,12.80
2024-05-09T07:15:41.270Z,12.90
2024-05-09T07:18:13.035Z,13.00
2024-05-09T07:20:41.259Z,13.10
2024-05-09T07:23:12.768Z,13.20
2024-05-09T07:25:41.071Z,13.30
2024-05-09T07:28:18.741Z,13.40
2024-05-09T07:30:46.388Z,13.50
2024-05-09T07:33:21.820Z,13.60
2024-05-09T07:35:50.744Z,13.70
2024-05-09T07:38:17.847Z,13.80
2024-05-09T07:40:45.451Z,13.90
2024-05-09T07:43:13.133Z,14.00
2024-05-09T07:45:50.417Z,14.10
2024-05-09T07:52:37.738Z,14.10
2024-05-09T07:53:47.572Z,14.20
2024-05-09T07:56:21.088Z,14.40
2024-05-09T07:58:51.123Z,14.50
2024-05-09T08:01:19.367Z,14.60
2024-05-09T08:03:46.655Z,14.60
2024-05-09T08:06:14.378Z,14.60
2024-05-09T08:08:41.777Z,14.60
2024-05-09T08:11:09.473Z,14.60
2024-05-09T08:13:36.683Z,14.60
2024-05-09T08:16:03.893Z,14.60
2024-05-09T08:18:31.449Z,14.70
2024-05-09T08:20:58.905Z,14.70
2024-05-09T08:23:26.328Z,14.70
2024-05-09T08:25:53.204Z,14.80
2024-05-09T08:28:20.902Z,14.90
2024-05-09T08:30:48.679Z,15.00
2024-05-09T08:33:16.082Z,15.10
2024-05-09T08:35:43.619Z,15.20
2024-05-09T08:38:11.114Z,15.40
2024-05-09T08:40:38.497Z,15.50
2024-05-09T08:43:11.674Z,15.60
2024-05-09T08:45:43.167Z,15.70
2024-05-09T08:48:14.719Z,15.70
2024-05-09T08:50:43.101Z,15.80
2024-05-09T08:53:10.949Z,15.90
2024-05-09T08:55:41.650Z,16.00
2024-05-09T08:58:14.016Z,16.00
2024-05-09T09:00:42.418Z,16.00
2024-05-09T09:03:12.916Z,16.00
2024-05-09T09:05:40.977Z,16.10
2024-05-09T09:08:09.044Z,16.20
2024-05-09T09:10:38.062Z,16.30
2024-05-09T09:13:09.285Z,16.50
2024-05-09T09:15:47.899Z,16.60
2024-05-09T09:18:16.221Z,16.90
2024-05-09T09:20:44.501Z,17.00
2024-05-09T09:23:11.544Z,17.00
2024-05-09T09:25:42.322Z,17.00
2024-05-09T09:28:09.912Z,16.90
2024-05-09T09:30:43.062Z,16.80
2024-05-09T09:33:11.297Z,16.80
2024-05-09T09:35:40.070Z,16.70
2024-05-09T09:38:08.224Z,16.60
2024-05-09T09:40:40.759Z,16.40
2024-05-09T09:43:14.995Z,16.20
2024-05-09T09:45:44.444Z,16.10
2024-05-09T09:48:12.418Z,16.10
2024-05-09T09:50:40.526Z,16.30
2024-05-09T09:53:07.987Z,16.40
2024-05-09T09:55:35.862Z,16.40
2024-05-09T09:58:04.831Z,16.40
2024-05-09T10:00:34.347Z,16.40
2024-05-09T10:03:02.117Z,16.60
2024-05-09T10:05:30.279Z,16.60
2024-05-09T10:07:58.143Z,16.60
2024-05-09T10:10:31.614Z,16.50
2024-05-09T10:13:03.360Z,16.50
2024-05-09T10:15:45.633Z,16.70
2024-05-09T10:18:13.108Z,17.10
2024-05-09T10:20:44.516Z,17.00
2024-05-09T10:23:28.311Z,17.10
2024-05-09T10:26:04.216Z,16.90
2024-05-09T10:28:35.919Z,16.90
2024-05-09T10:31:11.521Z,16.70
2024-05-09T10:33:39.956Z,16.50
2024-05-09T10:36:14.216Z,16.30
2024-05-09T10:38:42.853Z,16.30
2024-05-09T10:41:11.028Z,16.30
2024-05-09T10:43:41.489Z,16.20
2024-05-09T10:46:10.235Z,16.30
2024-05-09T10:48:38.942Z,16.50
2024-05-09T10:51:06.213Z,16.70
2024-05-09T10:53:44.096Z,16.70
2024-05-09T10:56:11.361Z,16.70
2024-05-09T10:58:38.745Z,16.50
2024-05-09T11:01:07.384Z,16.50
2024-05-09T11:03:36.026Z,16.50
2024-05-09T11:06:03.947Z,16.90
2024-05-09T11:08:32.644Z,17.10
2024-05-09T11:11:00.503Z,17.20
2024-05-09T11:13:31.841Z,17.10
2024-05-09T11:16:00.078Z,17.10
2024-05-09T11:18:32.325Z,17.30
2024-05-09T11:21:02.984Z,17.70
2024-05-09T11:23:30.625Z,18.00
2024-05-09T11:25:58.936Z,18.00
2024-05-09T11:28:30.688Z,17.90
2024-05-09T11:31:06.784Z,17.90
2024-05-09T11:33:37.524Z,18.10
2024-05-09T11:36:06.578Z,18.20
2024-05-09T11:38:33.988Z,18.20
2024-05-09T11:41:01.684Z,18.20
2024-05-09T11:43:29.058Z,18.20
2024-05-09T11:45:57.290Z,18.20
2024-05-09T11:48:26.305Z,18.20
2024-05-09T11:50:54.496Z,18.20
2024-05-09T11:53:22.994Z,18.30
2024-05-09T11:55:50.096Z,18.60
2024-05-09T11:58:18.782Z,19.00
2024-05-09T12:00:46.937Z,19.30
2024-05-09T12:03:14.928Z,19.50
2024-05-09T12:05:42.289Z,19.80
2024-05-09T12:08:10.072Z,19.90
2024-05-09T12:10:37.788Z,19.70
2024-05-09T12:13:06.687Z,19.60
2024-05-09T12:15:38.711Z,19.30
2024-05-09T12:18:07.175Z,19.10
2024-05-09T12:20:38.582Z,19.00
2024-05-09T12:23:09.416Z,18.70
2024-05-09T12:25:40.652Z,18.60
2024-05-09T12:28:08.595Z,18.70
2024-05-09T12:30:40.179Z,18.80
2024-05-09T12:33:11.301Z,18.70
2024-05-09T12:35:44.617Z,18.40
2024-05-09T12:38:15.078Z,18.20
2024-05-09T12:40:42.870Z,18.10
2024-05-09T12:43:11.392Z,18.30
2024-05-09T12:45:39.851Z,18.60
2024-05-09T12:48:11.710Z,18.90
2024-05-09T12:50:40.325Z,19.10
2024-05-09T12:53:07.495Z,19.00
2024-05-09T12:55:43.897Z,18.70
2024-05-09T12:58:19.715Z,18.40
2024-05-09T13:00:47.559Z,18.30
2024-05-09T13:03:15.311Z,18.50
2024-05-09T13:05:44.873Z,18.90
2024-05-09T13:08:12.635Z,19.30
2024-05-09T13:10:40.082Z,19.80
2024-05-09T13:13:07.299Z,20.10
2024-05-09T13:15:38.151Z,20.10
2024-05-09T13:18:06.488Z,19.80
2024-05-09T13:20:36.234Z,19.40
2024-05-09T13:23:05.606Z,19.00
2024-05-09T13:25:37.747Z,18.80
2024-05-09T13:28:06.294Z,18.90
2024-05-09T13:30:39.362Z,19.10
2024-05-09T13:33:13.779Z,19.20
2024-05-09T13:35:46.817Z,19.30
2024-05-09T13:38:18.168Z,19.20
2024-05-09T13:40:45.567Z,19.20
2024-05-09T13:43:13.571Z,19.20
2024-05-09T13:45:40.630Z,19.30
2024-05-09T13:48:09.784Z,19.40
2024-05-09T13:50:40.166Z,19.40
2024-05-09T13:53:08.639Z,19.30
2024-05-09T13:55:39.848Z,19.30
2024-05-09T13:58:08.146Z,19.40
2024-05-09T14:00:45.094Z,19.40
2024-05-09T14:03:20.370Z,19.30
2024-05-09T14:05:50.107Z,18.80
2024-05-09T14:08:19.950Z,18.50
2024-05-09T14:10:48.331Z,18.20
2024-05-09T14:13:15.822Z,18.00
2024-05-09T14:15:43.516Z,18.00
2024-05-09T14:18:13.504Z,18.10
2024-05-09T14:20:42.513Z,18.60
2024-05-09T14:23:09.963Z,18.40
2024-05-09T14:25:41.965Z,18.50
2024-05-09T14:28:10.616Z,18.70
2024-05-09T14:30:39.029Z,18.70
2024-05-09T14:33:07.986Z,18.80
2024-05-09T14:35:38.273Z,18.90
2024-05-09T14:38:07.024Z,19.00
2024-05-09T14:40:41.314Z,19.10
2024-05-09T14:43:12.391Z,19.00
2024-05-09T14:45:41.026Z,18.80
2024-05-09T14:48:09.100Z,18.70
2024-05-09T14:50:39.342Z,18.60
2024-05-09T14:53:10.858Z,18.90
2024-05-09T14:55:40.457Z,18.50
2024-05-09T14:58:12.840Z,18.50
2024-05-09T15:00:46.231Z,18.40
2024-05-09T15:03:17.831Z,18.60
2024-05-09T15:05:47.106Z,18.60
2024-05-09T15:08:14.152Z,19.30
2024-05-09T15:10:41.630Z,19.40
2024-05-09T15:13:10.469Z,19.20
2024-05-09T15:15:40.353Z,19.00
2024-05-09T15:18:07.945Z,18.80
2024-05-09T15:20:37.161Z,18.60
2024-05-09T15:23:06.219Z,18.30
2024-05-09T15:25:35.343Z,18.20
2024-05-09T15:28:02.823Z,18.30
2024-05-09T15:30:32.982Z,18.50
2024-05-09T15:33:04.008Z,18.80
2024-05-09T15:35:31.982Z,18.90
2024-05-09T15:37:59.493Z,19.10
2024-05-09T15:40:35.750Z,19.20
2024-05-09T15:43:07.639Z,19.10
2024-05-09T15:45:35.979Z,19.00
2024-05-09T15:48:03.675Z,18.60
2024-05-09T15:50:37.281Z,18.30
2024-05-09T15:53:09.358Z,18.10
2024-05-09T15:55:38.129Z,18.30
2024-05-09T15:58:06.688Z,18.30
2024-05-09T16:00:39.211Z,18.20
2024-05-09T16:03:11.801Z,18.20
2024-05-09T16:05:41.015Z,18.20
2024-05-09T16:08:09.002Z,18.30
2024-05-09T16:10:39.909Z,18.50
2024-05-09T16:13:08.849Z,18.80
2024-05-09T16:15:36.579Z,18.70
2024-05-09T16:18:04.274Z,18.70
2024-05-09T16:20:38.966Z,18.60
2024-05-09T16:23:09.234Z,18.50
2024-05-09T16:25:37.576Z,18.50
2024-05-09T16:28:08.948Z,18.50
2024-05-09T16:30:41.570Z,18.40
2024-05-09T16:33:10.820Z,18.40
2024-05-09T16:35:39.764Z,18.40
2024-05-09T16:38:07.549Z,18.60
2024-05-09T16:40:38.957Z,18.50
2024-05-09T16:43:13.100Z,18.30
2024-05-09T16:45:44.013Z,18.20
2024-05-09T16:48:12.376Z,18.20
2024-05-09T16:50:39.839Z,18.20
2024-05-09T16:53:07.552Z,18.20
2024-05-09T16:55:36.133Z,18.10
2024-05-09T16:58:05.273Z,18.20
2024-05-09T17:00:40.365Z,18.20
2024-05-09T17:03:12.730Z,18.20
2024-05-09T17:05:41.525Z,18.30
2024-05-09T17:08:09.295Z,18.40
2024-05-09T17:10:37.113Z,18.40
2024-05-09T17:13:06.559Z,18.40
2024-05-09T17:15:36.877Z,18.20
2024-05-09T17:18:06.568Z,18.20
2024-05-09T17:20:36.599Z,18.10
2024-05-09T17:23:12.907Z,18.00
2024-05-09T17:25:41.063Z,18.00
2024-05-09T17:28:09.418Z,18.10
2024-05-09T17:30:39.090Z,18.00
2024-05-09T17:33:09.839Z,18.00
2024-05-09T17:35:38.408Z,17.90
2024-05-09T17:38:06.758Z,17.90
2024-05-09T17:40:36.968Z,17.80
2024-05-09T17:43:08.458Z,17.70
2024-05-09T17:45:39.218Z,17.70
2024-05-09T17:48:08.491Z,17.70
2024-05-09T17:50:37.634Z,17.70
2024-05-09T17:53:06.551Z,17.60
2024-05-09T17:55:34.780Z,17.60
2024-05-09T17:58:03.052Z,17.60
2024-05-09T18:00:37.872Z,17.50
2024-05-09T18:03:11.056Z,17.50
2024-05-09T18:05:39.767Z,17.30
2024-05-09T18:08:08.150Z,17.30
2024-05-09T18:10:38.632Z,17.20
2024-05-09T18:13:08.860Z,17.30
2024-05-09T18:15:37.025Z,17.20
2024-05-09T18:18:05.762Z,17.10
2024-05-09T18:20:42.140Z,17.00
2024-05-09T18:23:15.601Z,16.90
2024-05-09T18:25:44.690Z,17.00
2024-05-09T18:28:12.310Z,16.70
2024-05-09T18:30:41.953Z,17.10
2024-05-09T18:33:10.701Z,16.50
2024-05-09T18:35:38.796Z,16.40
2024-05-09T18:38:06.332Z,16.30
2024-05-09T18:40:36.718Z,16.20
2024-05-09T18:43:08.005Z,16.10
2024-05-09T18:45:38.079Z,16.10
2024-05-09T18:48:08.017Z,15.90
2024-05-09T18:50:39.240Z,15.90
2024-05-09T18:53:13.169Z,15.80
2024-05-09T18:55:44.177Z,15.70
2024-05-09T18:58:11.739Z,15.70
2024-05-09T19:00:41.757Z,15.60
2024-05-09T19:03:13.647Z,15.50
2024-05-09T19:05:43.891Z,15.50
2024-05-09T19:08:12.933Z,15.40
2024-05-09T19:10:40.876Z,15.40
2024-05-09T19:13:12.192Z,15.30
2024-05-09T19:15:42.202Z,15.30
2024-05-09T19:18:11.727Z,15.20
2024-05-09T19:20:39.822Z,15.20
2024-05-09T19:23:07.649Z,15.10
2024-05-09T19:25:36.050Z,15.00
2024-05-09T19:28:04.654Z,14.90
2024-05-09T19:30:38.907Z,14.90
2024-05-09T19:33:12.080Z,14.80
2024-05-09T19:35:40.605Z,14.70
2024-05-09T19:38:08.258Z,14.60
2024-05-09T19:40:36.178Z,14.60
2024-05-09T19:43:05.372Z,14.50
2024-05-09T19:45:35.167Z,14.40
2024-05-09T19:48:04.887Z,14.40
2024-05-09T19:50:40.908Z,14.40
2024-05-09T19:53:12.595Z,14.40
2024-05-09T19:55:43.159Z,14.40
2024-05-09T19:58:11.246Z,14.30
2024-05-09T20:00:41.922Z,14.30
2024-05-09T20:03:12.411Z,14.30
2024-05-09T20:05:42.044Z,14.40
2024-05-09T20:08:09.625Z,14.20
2024-05-09T20:10:37.580Z,14.20
2024-05-09T20:13:06.999Z,14.20
2024-05-09T20:15:36.734Z,14.20
2024-05-09T20:18:05.333Z,14.20
2024-05-09T20:20:39.284Z,14.10
2024-05-09T20:23:10.720Z,14.10
2024-05-09T20:25:38.446Z,14.10
2024-05-09T20:28:06.402Z,14.10
2024-05-09T20:30:35.560Z,14.00
2024-05-09T20:33:05.269Z,14.10
2024-05-09T20:35:34.613Z,14.00
2024-05-09T20:38:03.516Z,14.00
2024-05-09T20:40:35.682Z,14.00
2024-05-09T20:43:07.086Z,14.00
2024-05-09T20:45:35.218Z,14.00
2024-05-09T20:48:03.116Z,14.00
2024-05-09T20:50:37.775Z,14.00
2024-05-09T20:53:13.453Z,13.90
2024-05-09T20:55:42.817Z,13.90
2024-05-09T20:58:10.558Z,13.90
2024-05-09T21:00:41.923Z,13.90
2024-05-09T21:03:13.360Z,13.90
2024-05-09T21:05:42.148Z,13.90
2024-05-09T21:08:09.585Z,13.90
2024-05-09T21:10:37.590Z,13.80
2024-05-09T21:13:06.435Z,13.80
2024-05-09T21:15:35.094Z,13.80
2024-05-09T21:18:03.078Z,13.80
2024-05-09T21:20:33.363Z,13.80
2024-05-09T21:23:01.934Z,13.80
2024-05-09T21:25:30.631Z,13.80
2024-05-09T21:27:58.236Z,13.80
2024-05-09T21:30:32.730Z,13.80
2024-05-09T21:33:09.544Z,13.80
2024-05-09T21:35:38.582Z,13.80
2024-05-09T21:38:07.035Z,13.80
2024-05-09T21:40:36.231Z,13.80
2024-05-09T21:43:08.195Z,13.80
2024-05-09T21:45:36.671Z,13.70
2024-05-09T21:48:05.195Z,14.60
2024-05-09T21:50:39.401Z,13.70
2024-05-09T21:53:12.608Z,13.70
2024-05-09T21:55:41.221Z,13.60
2024-05-09T21:58:08.665Z,13.60
2024-05-09T22:00:39.305Z,13.60
2024-05-09T22:03:08.770Z,13.60
2024-05-09T22:05:37.711Z,13.60
2024-05-09T22:08:05.708Z,13.60
2024-05-09T22:10:35.531Z,13.50
2024-05-09T22:13:05.737Z,13.50
2024-05-09T22:15:38.755Z,13.50
2024-05-09T22:18:08.314Z,13.50
2024-05-09T22:20:39.139Z,13.50
2024-05-09T22:23:08.483Z,13.50
2024-05-09T22:25:37.004Z,13.50
2024-05-09T22:28:05.465Z,13.50
2024-05-09T22:30:37.273Z,13.50
2024-05-09T22:33:08.732Z,13.50
2024-05-09T22:35:37.410Z,13.50
2024-05-09T22:38:04.455Z,13.50
2024-05-09T22:40:42.189Z,13.40
2024-05-09T22:43:20.302Z,13.40
2024-05-09T22:45:48.702Z,13.40
2024-05-09T22:48:16.390Z,13.40
2024-05-09T22:50:43.801Z,13.40
2024-05-09T22:53:11.143Z,13.40
2024-05-09T22:55:38.445Z,13.40
2024-05-09T22:58:05.453Z,13.40
2024-05-09T23:00:33.418Z,13.30
2024-05-09T23:03:01.946Z,13.30
2024-05-09T23:05:29.538Z,13.30
2024-05-09T23:07:56.746Z,13.30
2024-05-09T23:10:32.138Z,13.30
2024-05-09T23:13:03.654Z,13.30
2024-05-09T23:15:31.396Z,13.30
2024-05-09T23:17:58.961Z,13.20
2024-05-09T23:20:33.541Z,13.30
2024-05-09T23:23:10.153Z,13.20
2024-05-09T23:25:38.316Z,13.20
2024-05-09T23:28:06.326Z,13.30
2024-05-09T23:30:38.105Z,13.20
2024-05-09T23:33:14.904Z,13.20
2024-05-09T23:35:44.166Z,13.20
2024-05-09T23:38:12.221Z,13.20
2024-05-09T23:40:41.217Z,13.20
2024-05-09T23:43:10.880Z,13.20
2024-05-09T23:45:38.582Z,13.20
2024-05-09T23:48:06.473Z,13.20
2024-05-09T23:50:37.188Z,13.20
2024-05-09T23:53:07.644Z,13.20
2024-05-09T23:55:36.272Z,13.10
2024-05-09T23:58:03.396Z,13.10
